sensor_id;sensor_type;location;lat;lon;timestamp;P1;durP1;ratioP1;P2;durP2;ratioP2
71856;SDS011;59712;46.980;28.882;2022-08-21T00:00:18;11.05;;;6.70;;
71856;SDS011;59712;46.980;28.882;2022-08-21T00:03:04;11.10;;;6.25;;
71856;SDS011;59712;46.980;28.882;2022-08-21T00:05:35;9.63;;;6.28;;
71856;SDS011;59712;46.980;28.882;2022-08-21T00:08:04;9.68;;;5.70;;
71856;SDS011;59712;46.980;28.882;2022-08-21T00:10:31;12.02;;;6.45;;
71856;SDS011;59712;46.980;28.882;2022-08-21T00:13:00;11.45;;;6.43;;
71856;SDS011;59712;46.980;28.882;2022-08-21T00:15:30;13.02;;;6.85;;
71856;SDS011;59712;46.980;28.882;2022-08-21T00:17:58;17.73;;;7.28;;
71856;SDS011;59712;46.980;28.882;2022-08-21T00:20:26;11.75;;;6.72;;
71856;SDS011;59712;46.980;28.882;2022-08-21T00:22:53;10.73;;;7.32;;
71856;SDS011;59712;46.980;28.882;2022-08-21T00:25:23;15.93;;;7.10;;
71856;SDS011;59712;46.980;28.882;2022-08-21T00:27:52;11.80;;;7.05;;
71856;SDS011;59712;46.980;28.882;2022-08-21T00:30:21;12.52;;;6.72;;
71856;SDS011;59712;46.980;28.882;2022-08-21T00:32:51;10.65;;;7.05;;
71856;SDS011;59712;46.980;28.882;2022-08-21T00:35:22;12.40;;;7.25;;
71856;SDS011;59712;46.980;28.882;2022-08-21T00:37:52;14.23;;;7.63;;
71856;SDS011;59712;46.980;28.882;2022-08-21T00:40:21;13.43;;;7.45;;
71856;SDS011;59712;46.980;28.882;2022-08-21T00:43:05;15.38;;;7.35;;
71856;SDS011;59712;46.980;28.882;2022-08-21T00:45:34;18.35;;;7.82;;
71856;SDS011;59712;46.980;28.882;2022-08-21T00:48:02;16.33;;;7.45;;
71856;SDS011;59712;46.980;28.882;2022-08-21T00:50:30;14.07;;;8.35;;
71856;SDS011;59712;46.980;28.882;2022-08-21T00:52:59;11.98;;;7.13;;
71856;SDS011;59712;46.980;28.882;2022-08-21T00:55:28;10.80;;;6.68;;
71856;SDS011;59712;46.980;28.882;2022-08-21T00:57:59;12.65;;;6.35;;
71856;SDS011;59712;46.980;28.882;2022-08-21T01:00:29;8.18;;;6.03;;
71856;SDS011;59712;46.980;28.882;2022-08-21T01:03:00;11.52;;;6.53;;
71856;SDS011;59712;46.980;28.882;2022-08-21T01:05:34;10.63;;;6.38;;
71856;SDS011;59712;46.980;28.882;2022-08-21T01:13:04;13.40;;;6.50;;
71856;SDS011;59712;46.980;28.882;2022-08-21T01:15:35;14.98;;;6.95;;
71856;SDS011;59712;46.980;28.882;2022-08-21T01:18:05;14.23;;;6.47;;
71856;SDS011;59712;46.980;28.882;2022-08-21T01:20:35;12.85;;;6.40;;
71856;SDS011;59712;46.980;28.882;2022-08-21T01:25:32;12.70;;;7.13;;
71856;SDS011;59712;46.980;28.882;2022-08-21T01:28:02;14.57;;;7.28;;
71856;SDS011;59712;46.980;28.882;2022-08-21T01:30:35;11.57;;;7.60;;
71856;SDS011;59712;46.980;28.882;2022-08-21T01:33:05;13.20;;;7.68;;
71856;SDS011;59712;46.980;28.882;2022-08-21T01:35:32;12.10;;;7.50;;
71856;SDS011;59712;46.980;28.882;2022-08-21T01:37:59;14.57;;;8.15;;
71856;SDS011;59712;46.980;28.882;2022-08-21T01:40:27;13.10;;;7.90;;
71856;SDS011;59712;46.980;28.882;2022-08-21T01:42:54;11.65;;;6.72;;
71856;SDS011;59712;46.980;28.882;2022-08-21T01:45:21;14.23;;;8.00;;
71856;SDS011;59712;46.980;28.882;2022-08-21T01:47:49;13.63;;;7.78;;
71856;SDS011;59712;46.980;28.882;2022-08-21T01:50:17;15.50;;;9.43;;
71856;SDS011;59712;46.980;28.882;2022-08-21T01:52:46;20.85;;;8.95;;
71856;SDS011;59712;46.980;28.882;2022-08-21T01:55:16;14.73;;;8.23;;
71856;SDS011;59712;46.980;28.882;2022-08-21T02:00:13;17.70;;;8.38;;
71856;SDS011;59712;46.980;28.882;2022-08-21T02:02:42;16.58;;;7.82;;
71856;SDS011;59712;46.980;28.882;2022-08-21T02:05:10;17.30;;;7.70;;
71856;SDS011;59712;46.980;28.882;2022-08-21T02:07:44;16.00;;;8.15;;
71856;SDS011;59712;46.980;28.882;2022-08-21T02:10:15;13.23;;;7.38;;
71856;SDS011;59712;46.980;28.882;2022-08-21T02:12:46;11.73;;;8.45;;
71856;SDS011;59712;46.980;28.882;2022-08-21T02:15:13;11.52;;;7.78;;
71856;SDS011;59712;46.980;28.882;2022-08-21T02:17:42;14.68;;;8.13;;
71856;SDS011;59712;46.980;28.882;2022-08-21T02:20:16;16.58;;;7.88;;
71856;SDS011;59712;46.980;28.882;2022-08-21T02:22:51;12.85;;;8.10;;
71856;SDS011;59712;46.980;28.882;2022-08-21T02:25:20;13.75;;;7.78;;
71856;SDS011;59712;46.980;28.882;2022-08-21T02:27:49;16.77;;;8.55;;
71856;SDS011;59712;46.980;28.882;2022-08-21T02:30:19;14.55;;;8.18;;
71856;SDS011;59712;46.980;28.882;2022-08-21T02:32:49;11.77;;;8.23;;
71856;SDS011;59712;46.980;28.882;2022-08-21T02:35:16;12.20;;;7.63;;
71856;SDS011;59712;46.980;28.882;2022-08-21T02:37:46;15.65;;;8.05;;
71856;SDS011;59712;46.980;28.882;2022-08-21T02:40:17;12.48;;;7.88;;
71856;SDS011;59712;46.980;28.882;2022-08-21T02:42:47;13.50;;;7.43;;
71856;SDS011;59712;46.980;28.882;2022-08-21T02:45:14;17.35;;;9.05;;
71856;SDS011;59712;46.980;28.882;2022-08-21T02:47:46;11.60;;;7.82;;
71856;SDS011;59712;46.980;28.882;2022-08-21T02:50:21;16.27;;;7.90;;
71856;SDS011;59712;46.980;28.882;2022-08-21T02:52:53;12.85;;;8.10;;
71856;SDS011;59712;46.980;28.882;2022-08-21T02:55:22;13.60;;;8.13;;
71856;SDS011;59712;46.980;28.882;2022-08-21T02:57:50;18.30;;;8.57;;
71856;SDS011;59712;46.980;28.882;2022-08-21T03:00:18;14.65;;;8.10;;
71856;SDS011;59712;46.980;28.882;2022-08-21T03:02:47;15.45;;;9.05;;
71856;SDS011;59712;46.980;28.882;2022-08-21T03:05:16;13.27;;;7.60;;
71856;SDS011;59712;46.980;28.882;2022-08-21T03:07:45;18.75;;;9.10;;
71856;SDS011;59712;46.980;28.882;2022-08-21T03:10:14;19.77;;;8.77;;
71856;SDS011;59712;46.980;28.882;2022-08-21T03:12:42;14.02;;;8.25;;
71856;SDS011;59712;46.980;28.882;2022-08-21T03:15:10;15.15;;;7.78;;
71856;SDS011;59712;46.980;28.882;2022-08-21T03:17:39;12.52;;;7.55;;
71856;SDS011;59712;46.980;28.882;2022-08-21T03:20:07;19.40;;;8.85;;
71856;SDS011;59712;46.980;28.882;2022-08-21T03:22:35;17.80;;;10.10;;
71856;SDS011;59712;46.980;28.882;2022-08-21T03:25:02;16.45;;;7.55;;
71856;SDS011;59712;46.980;28.882;2022-08-21T03:27:32;14.35;;;9.30;;
71856;SDS011;59712;46.980;28.882;2022-08-21T03:30:01;15.82;;;8.30;;
71856;SDS011;59712;46.980;28.882;2022-08-21T03:32:30;16.48;;;8.55;;
71856;SDS011;59712;46.980;28.882;2022-08-21T03:34:58;13.85;;;8.63;;
71856;SDS011;59712;46.980;28.882;2022-08-21T03:37:27;15.60;;;8.32;;
71856;SDS011;59712;46.980;28.882;2022-08-21T03:39:54;15.75;;;8.93;;
71856;SDS011;59712;46.980;28.882;2022-08-21T03:42:22;14.80;;;8.15;;
71856;SDS011;59712;46.980;28.882;2022-08-21T03:44:50;12.68;;;7.78;;
71856;SDS011;59712;46.980;28.882;2022-08-21T03:47:17;14.57;;;7.00;;
71856;SDS011;59712;46.980;28.882;2022-08-21T03:49:44;12.00;;;7.07;;
71856;SDS011;59712;46.980;28.882;2022-08-21T03:52:12;16.25;;;7.72;;
71856;SDS011;59712;46.980;28.882;2022-08-21T03:54:39;11.10;;;6.80;;
71856;SDS011;59712;46.980;28.882;2022-08-21T03:57:07;12.90;;;6.22;;
71856;SDS011;59712;46.980;28.882;2022-08-21T03:59:36;12.15;;;6.68;;
71856;SDS011;59712;46.980;28.882;2022-08-21T04:02:04;14.35;;;6.57;;
71856;SDS011;59712;46.980;28.882;2022-08-21T04:04:33;14.18;;;6.43;;
71856;SDS011;59712;46.980;28.882;2022-08-21T04:07:03;12.82;;;6.15;;
71856;SDS011;59712;46.980;28.882;2022-08-21T04:09:31;10.98;;;6.40;;
71856;SDS011;59712;46.980;28.882;2022-08-21T04:11:58;16.15;;;6.43;;
71856;SDS011;59712;46.980;28.882;2022-08-21T04:14:28;11.88;;;6.47;;
71856;SDS011;59712;46.980;28.882;2022-08-21T04:16:55;13.38;;;7.82;;
71856;SDS011;59712;46.980;28.882;2022-08-21T04:19:22;15.18;;;7.38;;
71856;SDS011;59712;46.980;28.882;2022-08-21T04:21:50;12.68;;;6.45;;
71856;SDS011;59712;46.980;28.882;2022-08-21T04:24:18;9.30;;;6.35;;
71856;SDS011;59712;46.980;28.882;2022-08-21T04:26:45;10.75;;;7.65;;
71856;SDS011;59712;46.980;28.882;2022-08-21T04:29:13;15.95;;;7.68;;
71856;SDS011;59712;46.980;28.882;2022-08-21T04:31:41;9.82;;;7.53;;
71856;SDS011;59712;46.980;28.882;2022-08-21T04:34:10;10.32;;;6.72;;
71856;SDS011;59712;46.980;28.882;2022-08-21T04:36:38;12.95;;;7.45;;
71856;SDS011;59712;46.980;28.882;2022-08-21T04:39:05;14.45;;;7.45;;
71856;SDS011;59712;46.980;28.882;2022-08-21T04:41:35;11.77;;;7.18;;
71856;SDS011;59712;46.980;28.882;2022-08-21T04:44:03;10.52;;;8.15;;
71856;SDS011;59712;46.980;28.882;2022-08-21T04:46:30;15.73;;;8.25;;
71856;SDS011;59712;46.980;28.882;2022-08-21T04:48:58;14.55;;;8.48;;
71856;SDS011;59712;46.980;28.882;2022-08-21T04:51:27;14.82;;;8.85;;
71856;SDS011;59712;46.980;28.882;2022-08-21T04:53:59;13.05;;;8.10;;
71856;SDS011;59712;46.980;28.882;2022-08-21T04:59:00;13.38;;;8.45;;
71856;SDS011;59712;46.980;28.882;2022-08-21T05:01:32;12.18;;;7.47;;
71856;SDS011;59712;46.980;28.882;2022-08-21T05:04:02;15.93;;;8.98;;
71856;SDS011;59712;46.980;28.882;2022-08-21T05:06:33;17.08;;;8.75;;
71856;SDS011;59712;46.980;28.882;2022-08-21T05:09:13;18.13;;;9.05;;
71856;SDS011;59712;46.980;28.882;2022-08-21T05:11:43;14.30;;;9.15;;
71856;SDS011;59712;46.980;28.882;2022-08-21T05:14:11;16.05;;;9.60;;
71856;SDS011;59712;46.980;28.882;2022-08-21T05:16:39;19.58;;;10.05;;
71856;SDS011;59712;46.980;28.882;2022-08-21T05:19:15;17.10;;;10.48;;
71856;SDS011;59712;46.980;28.882;2022-08-21T05:21:44;14.35;;;9.82;;
71856;SDS011;59712;46.980;28.882;2022-08-21T05:24:14;14.60;;;10.57;;
71856;SDS011;59712;46.980;28.882;2022-08-21T05:26:41;16.20;;;9.70;;
71856;SDS011;59712;46.980;28.882;2022-08-21T05:29:13;13.25;;;9.15;;
71856;SDS011;59712;46.980;28.882;2022-08-21T05:31:46;17.15;;;9.90;;
71856;SDS011;59712;46.980;28.882;2022-08-21T05:34:17;15.02;;;9.40;;
71856;SDS011;59712;46.980;28.882;2022-08-21T05:36:45;19.27;;;10.77;;
71856;SDS011;59712;46.980;28.882;2022-08-21T05:39:13;16.00;;;9.02;;
71856;SDS011;59712;46.980;28.882;2022-08-21T05:41:46;18.55;;;10.02;;
71856;SDS011;59712;46.980;28.882;2022-08-21T05:44:24;16.65;;;9.75;;
71856;SDS011;59712;46.980;28.882;2022-08-21T05:46:52;14.85;;;10.00;;
71856;SDS011;59712;46.980;28.882;2022-08-21T05:49:19;15.52;;;8.63;;
71856;SDS011;59712;46.980;28.882;2022-08-21T05:51:46;16.20;;;10.23;;
71856;SDS011;59712;46.980;28.882;2022-08-21T05:54:13;13.45;;;8.52;;
71856;SDS011;59712;46.980;28.882;2022-08-21T05:56:41;14.75;;;10.65;;
71856;SDS011;59712;46.980;28.882;2022-08-21T05:59:11;15.35;;;10.57;;
71856;SDS011;59712;46.980;28.882;2022-08-21T06:01:39;16.67;;;10.07;;
71856;SDS011;59712;46.980;28.882;2022-08-21T06:04:07;16.58;;;10.43;;
71856;SDS011;59712;46.980;28.882;2022-08-21T06:06:35;17.95;;;10.55;;
71856;SDS011;59712;46.980;28.882;2022-08-21T06:09:02;16.25;;;10.93;;
71856;SDS011;59712;46.980;28.882;2022-08-21T06:11:31;20.73;;;11.98;;
71856;SDS011;59712;46.980;28.882;2022-08-21T06:14:00;17.27;;;10.85;;
71856;SDS011;59712;46.980;28.882;2022-08-21T06:16:27;20.83;;;13.35;;
71856;SDS011;59712;46.980;28.882;2022-08-21T06:18:54;15.50;;;10.30;;
71856;SDS011;59712;46.980;28.882;2022-08-21T06:21:28;15.25;;;10.77;;
71856;SDS011;59712;46.980;28.882;2022-08-21T06:23:55;16.83;;;10.98;;
71856;SDS011;59712;46.980;28.882;2022-08-21T06:26:22;27.73;;;11.82;;
71856;SDS011;59712;46.980;28.882;2022-08-21T06:28:51;18.42;;;11.85;;
71856;SDS011;59712;46.980;28.882;2022-08-21T06:31:23;15.98;;;11.02;;
71856;SDS011;59712;46.980;28.882;2022-08-21T06:33:53;18.33;;;12.50;;
71856;SDS011;59712;46.980;28.882;2022-08-21T06:36:22;19.77;;;11.65;;
71856;SDS011;59712;46.980;28.882;2022-08-21T06:38:49;22.70;;;11.50;;
71856;SDS011;59712;46.980;28.882;2022-08-21T06:41:18;19.50;;;12.57;;
71856;SDS011;59712;46.980;28.882;2022-08-21T06:43:53;14.77;;;10.40;;
71856;SDS011;59712;46.980;28.882;2022-08-21T06:46:28;15.98;;;11.23;;
71856;SDS011;59712;46.980;28.882;2022-08-21T06:48:58;17.92;;;11.60;;
71856;SDS011;59712;46.980;28.882;2022-08-21T06:51:25;18.98;;;10.90;;
71856;SDS011;59712;46.980;28.882;2022-08-21T06:53:55;21.60;;;11.98;;
71856;SDS011;59712;46.980;28.882;2022-08-21T06:56:25;17.92;;;11.23;;
71856;SDS011;59712;46.980;28.882;2022-08-21T06:58:52;20.38;;;11.40;;
71856;SDS011;59712;46.980;28.882;2022-08-21T07:01:22;17.90;;;11.30;;
71856;SDS011;59712;46.980;28.882;2022-08-21T07:03:52;17.35;;;11.75;;
71856;SDS011;59712;46.980;28.882;2022-08-21T07:06:20;22.67;;;12.68;;
71856;SDS011;59712;46.980;28.882;2022-08-21T07:08:48;19.90;;;13.60;;
71856;SDS011;59712;46.980;28.882;2022-08-21T07:11:19;18.30;;;11.65;;
71856;SDS011;59712;46.980;28.882;2022-08-21T07:13:48;19.45;;;13.18;;
71856;SDS011;59712;46.980;28.882;2022-08-21T07:16:30;18.42;;;12.18;;
71856;SDS011;59712;46.980;28.882;2022-08-21T07:19:07;19.27;;;11.15;;
71856;SDS011;59712;46.980;28.882;2022-08-21T07:21:34;18.60;;;11.63;;
71856;SDS011;59712;46.980;28.882;2022-08-21T07:24:01;19.00;;;11.80;;
71856;SDS011;59712;46.980;28.882;2022-08-21T07:26:30;17.20;;;11.90;;
71856;SDS011;59712;46.980;28.882;2022-08-21T07:28:57;18.05;;;11.60;;
71856;SDS011;59712;46.980;28.882;2022-08-21T07:31:25;18.60;;;12.43;;
71856;SDS011;59712;46.980;28.882;2022-08-21T07:33:55;23.00;;;12.07;;
71856;SDS011;59712;46.980;28.882;2022-08-21T07:36:22;16.30;;;10.18;;
71856;SDS011;59712;46.980;28.882;2022-08-21T07:38:50;17.52;;;11.98;;
71856;SDS011;59712;46.980;28.882;2022-08-21T07:41:20;17.55;;;12.13;;
71856;SDS011;59712;46.980;28.882;2022-08-21T07:43:50;19.98;;;12.40;;
71856;SDS011;59712;46.980;28.882;2022-08-21T07:48:46;15.43;;;9.43;;
71856;SDS011;59712;46.980;28.882;2022-08-21T07:51:14;17.00;;;11.43;;
71856;SDS011;59712;46.980;28.882;2022-08-21T07:53:50;17.65;;;12.05;;
71856;SDS011;59712;46.980;28.882;2022-08-21T07:56:22;14.75;;;10.80;;
71856;SDS011;59712;46.980;28.882;2022-08-21T07:58:49;19.33;;;12.73;;
71856;SDS011;59712;46.980;28.882;2022-08-21T08:01:19;17.88;;;12.35;;
71856;SDS011;59712;46.980;28.882;2022-08-21T08:03:47;16.33;;;12.77;;
71856;SDS011;59712;46.980;28.882;2022-08-21T08:06:14;18.27;;;12.02;;
71856;SDS011;59712;46.980;28.882;2022-08-21T08:08:43;18.25;;;12.60;;
71856;SDS011;59712;46.980;28.882;2022-08-21T08:13:46;15.07;;;10.45;;
71856;SDS011;59712;46.980;28.882;2022-08-21T08:16:18;16.02;;;11.40;;
71856;SDS011;59712;46.980;28.882;2022-08-21T08:18:46;16.70;;;10.75;;
71856;SDS011;59712;46.980;28.882;2022-08-21T08:21:13;16.52;;;12.18;;
71856;SDS011;59712;46.980;28.882;2022-08-21T08:23:44;16.88;;;11.65;;
71856;SDS011;59712;46.980;28.882;2022-08-21T08:26:13;15.15;;;11.48;;
71856;SDS011;59712;46.980;28.882;2022-08-21T08:28:50;15.98;;;11.82;;
71856;SDS011;59712;46.980;28.882;2022-08-21T08:31:17;18.77;;;10.63;;
71856;SDS011;59712;46.980;28.882;2022-08-21T08:33:54;21.17;;;12.15;;
71856;SDS011;59712;46.980;28.882;2022-08-21T08:36:30;13.38;;;10.43;;
71856;SDS011;59712;46.980;28.882;2022-08-21T08:39:05;12.32;;;9.32;;
71856;SDS011;59712;46.980;28.882;2022-08-21T08:41:36;15.57;;;10.43;;
71856;SDS011;59712;46.980;28.882;2022-08-21T08:44:06;13.75;;;10.32;;
71856;SDS011;59712;46.980;28.882;2022-08-21T08:46:41;13.93;;;10.57;;
71856;SDS011;59712;46.980;28.882;2022-08-21T08:49:13;14.82;;;10.15;;
71856;SDS011;59712;46.980;28.882;2022-08-21T08:55:19;13.00;;;11.70;;
71856;SDS011;59712;46.980;28.882;2022-08-21T08:57:30;13.70;;;12.35;;
71856;SDS011;59712;46.980;28.882;2022-08-21T09:00:03;15.15;;;10.63;;
71856;SDS011;59712;46.980;28.882;2022-08-21T09:02:34;12.75;;;10.57;;
71856;SDS011;59712;46.980;28.882;2022-08-21T09:05:24;13.70;;;10.63;;
71856;SDS011;59712;46.980;28.882;2022-08-21T09:17:02;12.05;;;10.23;;
71856;SDS011;59712;46.980;28.882;2022-08-21T09:27:43;10.48;;;9.20;;
71856;SDS011;59712;46.980;28.882;2022-08-21T09:30:13;11.85;;;8.90;;
71856;SDS011;59712;46.980;28.882;2022-08-21T09:32:41;13.00;;;8.80;;
71856;SDS011;59712;46.980;28.882;2022-08-21T09:35:13;13.30;;;9.32;;
71856;SDS011;59712;46.980;28.882;2022-08-21T09:37:47;14.55;;;13.00;;
71856;SDS011;59712;46.980;28.882;2022-08-21T09:40:43;14.05;;;11.00;;
71856;SDS011;59712;46.980;28.882;2022-08-21T09:43:19;12.00;;;9.48;;
71856;SDS011;59712;46.980;28.882;2022-08-21T09:45:49;11.00;;;9.25;;
71856;SDS011;59712;46.980;28.882;2022-08-21T09:48:28;10.57;;;8.43;;
71856;SDS011;59712;46.980;28.882;2022-08-21T09:51:06;17.13;;;8.82;;
71856;SDS011;59712;46.980;28.882;2022-08-21T09:53:41;9.70;;;7.80;;
71856;SDS011;59712;46.980;28.882;2022-08-21T09:56:19;11.80;;;8.38;;
71856;SDS011;59712;46.980;28.882;2022-08-21T09:59:29;10.50;;;8.43;;
71856;SDS011;59712;46.980;28.882;2022-08-21T10:02:15;9.75;;;8.10;;
71856;SDS011;59712;46.980;28.882;2022-08-21T10:04:52;9.95;;;8.48;;
71856;SDS011;59712;46.980;28.882;2022-08-21T10:07:49;11.50;;;10.32;;
71856;SDS011;59712;46.980;28.882;2022-08-21T10:10:24;10.60;;;7.95;;
71856;SDS011;59712;46.980;28.882;2022-08-21T10:15:58;9.95;;;8.77;;
71856;SDS011;59712;46.980;28.882;2022-08-21T10:32:07;12.40;;;7.72;;
71856;SDS011;59712;46.980;28.882;2022-08-21T10:35:34;9.93;;;7.78;;
71856;SDS011;59712;46.980;28.882;2022-08-21T10:56:22;10.25;;;7.55;;
71856;SDS011;59712;46.980;28.882;2022-08-21T10:59:14;9.48;;;7.40;;
71856;SDS011;59712;46.980;28.882;2022-08-21T11:04:59;11.98;;;7.88;;
71856;SDS011;59712;46.980;28.882;2022-08-21T11:07:43;13.93;;;11.00;;
71856;SDS011;59712;46.980;28.882;2022-08-21T11:10:18;9.05;;;6.50;;
71856;SDS011;59712;46.980;28.882;2022-08-21T11:13:01;9.65;;;6.78;;
71856;SDS011;59712;46.980;28.882;2022-08-21T11:15:43;9.50;;;6.25;;
71856;SDS011;59712;46.980;28.882;2022-08-21T11:23:54;14.20;;;7.50;;
71856;SDS011;59712;46.980;28.882;2022-08-21T11:26:34;10.88;;;7.65;;
71856;SDS011;59712;46.980;28.882;2022-08-21T11:29:13;12.00;;;7.85;;
71856;SDS011;59712;46.980;28.882;2022-08-21T11:37:17;12.13;;;7.60;;
71856;SDS011;59712;46.980;28.882;2022-08-21T11:43:02;11.35;;;8.32;;
71856;SDS011;59712;46.980;28.882;2022-08-21T11:48:23;12.65;;;8.05;;
71856;SDS011;59712;46.980;28.882;2022-08-21T11:51:12;10.00;;;6.07;;
71856;SDS011;59712;46.980;28.882;2022-08-21T11:53:46;10.00;;;7.22;;
71856;SDS011;59712;46.980;28.882;2022-08-21T11:56:29;10.27;;;7.95;;
71856;SDS011;59712;46.980;28.882;2022-08-21T11:59:09;8.85;;;7.68;;
71856;SDS011;59712;46.980;28.882;2022-08-21T12:01:43;10.80;;;7.22;;
71856;SDS011;59712;46.980;28.882;2022-08-21T12:04:27;10.55;;;7.35;;
71856;SDS011;59712;46.980;28.882;2022-08-21T12:07:09;11.90;;;8.20;;
71856;SDS011;59712;46.980;28.882;2022-08-21T12:09:55;10.20;;;6.13;;
71856;SDS011;59712;46.980;28.882;2022-08-21T12:13:07;9.45;;;5.93;;
71856;SDS011;59712;46.980;28.882;2022-08-21T12:16:15;10.68;;;7.70;;
71856;SDS011;59712;46.980;28.882;2022-08-21T12:19:05;14.02;;;8.68;;
71856;SDS011;59712;46.980;28.882;2022-08-21T12:22:08;9.65;;;7.20;;
71856;SDS011;59712;46.980;28.882;2022-08-21T12:24:45;10.10;;;7.97;;
71856;SDS011;59712;46.980;28.882;2022-08-21T12:32:58;10.77;;;7.97;;
71856;SDS011;59712;46.980;28.882;2022-08-21T12:35:40;11.45;;;8.10;;
71856;SDS011;59712;46.980;28.882;2022-08-21T12:38:21;13.52;;;8.30;;
71856;SDS011;59712;46.980;28.882;2022-08-21T12:40:56;11.07;;;7.47;;
71856;SDS011;59712;46.980;28.882;2022-08-21T12:43:59;10.23;;;7.68;;
71856;SDS011;59712;46.980;28.882;2022-08-21T12:47:11;12.57;;;8.32;;
71856;SDS011;59712;46.980;28.882;2022-08-21T12:49:52;9.73;;;8.27;;
71856;SDS011;59712;46.980;28.882;2022-08-21T12:52:35;11.45;;;7.65;;
71856;SDS011;59712;46.980;28.882;2022-08-21T12:55:13;12.70;;;7.85;;
71856;SDS011;59712;46.980;28.882;2022-08-21T12:57:43;10.38;;;7.03;;
71856;SDS011;59712;46.980;28.882;2022-08-21T13:00:13;11.68;;;7.13;;
71856;SDS011;59712;46.980;28.882;2022-08-21T13:02:47;6.45;;;4.22;;
71856;SDS011;59712;46.980;28.882;2022-08-21T13:07:58;10.55;;;6.65;;
71856;SDS011;59712;46.980;28.882;2022-08-21T13:10:32;11.35;;;6.32;;
71856;SDS011;59712;46.980;28.882;2022-08-21T13:13:09;7.57;;;6.15;;
71856;SDS011;59712;46.980;28.882;2022-08-21T13:15:57;9.80;;;7.60;;
71856;SDS011;59712;46.980;28.882;2022-08-21T13:18:40;8.32;;;5.18;;
71856;SDS011;59712;46.980;28.882;2022-08-21T13:21:26;8.45;;;6.00;;
71856;SDS011;59712;46.980;28.882;2022-08-21T13:27:21;10.82;;;6.43;;
71856;SDS011;59712;46.980;28.882;2022-08-21T13:32:44;12.13;;;7.43;;
71856;SDS011;59712;46.980;28.882;2022-08-21T13:35:23;10.23;;;7.40;;
71856;SDS011;59712;46.980;28.882;2022-08-21T13:37:53;9.32;;;6.07;;
71856;SDS011;59712;46.980;28.882;2022-08-21T13:40:24;11.70;;;6.95;;
71856;SDS011;59712;46.980;28.882;2022-08-21T13:43:21;7.80;;;5.63;;
71856;SDS011;59712;46.980;28.882;2022-08-21T13:45:56;10.18;;;6.68;;
71856;SDS011;59712;46.980;28.882;2022-08-21T13:48:25;9.88;;;6.93;;
71856;SDS011;59712;46.980;28.882;2022-08-21T13:50:58;6.53;;;4.95;;
71856;SDS011;59712;46.980;28.882;2022-08-21T13:53:32;9.90;;;6.13;;
71856;SDS011;59712;46.980;28.882;2022-08-21T13:56:04;9.27;;;6.78;;
71856;SDS011;59712;46.980;28.882;2022-08-21T13:58:43;7.28;;;5.93;;
71856;SDS011;59712;46.980;28.882;2022-08-21T14:01:17;10.45;;;6.82;;
71856;SDS011;59712;46.980;28.882;2022-08-21T14:06:22;7.65;;;5.70;;
71856;SDS011;59712;46.980;28.882;2022-08-21T14:09:02;8.98;;;5.85;;
71856;SDS011;59712;46.980;28.882;2022-08-21T14:12:42;6.05;;;4.35;;
71856;SDS011;59712;46.980;28.882;2022-08-21T14:15:17;5.53;;;4.20;;
71856;SDS011;59712;46.980;28.882;2022-08-21T14:17:47;6.28;;;4.78;;
71856;SDS011;59712;46.980;28.882;2022-08-21T14:20:31;8.32;;;5.85;;
71856;SDS011;59712;46.980;28.882;2022-08-21T14:23:26;7.00;;;5.50;;
71856;SDS011;59712;46.980;28.882;2022-08-21T14:25:54;12.13;;;6.03;;
71856;SDS011;59712;46.980;28.882;2022-08-21T14:28:28;8.57;;;6.03;;
71856;SDS011;59712;46.980;28.882;2022-08-21T14:31:18;7.22;;;5.80;;
71856;SDS011;59712;46.980;28.882;2022-08-21T14:33:50;6.57;;;5.80;;
71856;SDS011;59712;46.980;28.882;2022-08-21T14:36:19;11.65;;;6.15;;
71856;SDS011;59712;46.980;28.882;2022-08-21T14:38:46;8.90;;;5.93;;
71856;SDS011;59712;46.980;28.882;2022-08-21T14:41:21;7.82;;;5.68;;
71856;SDS011;59712;46.980;28.882;2022-08-21T14:43:55;8.65;;;6.10;;
71856;SDS011;59712;46.980;28.882;2022-08-21T14:46:37;7.93;;;5.75;;
71856;SDS011;59712;46.980;28.882;2022-08-21T14:49:23;7.65;;;5.20;;
71856;SDS011;59712;46.980;28.882;2022-08-21T14:51:53;11.07;;;6.22;;
71856;SDS011;59712;46.980;28.882;2022-08-21T14:54:26;11.10;;;7.25;;
71856;SDS011;59712;46.980;28.882;2022-08-21T14:57:00;7.57;;;6.45;;
71856;SDS011;59712;46.980;28.882;2022-08-21T14:59:32;9.25;;;5.70;;
71856;SDS011;59712;46.980;28.882;2022-08-21T15:02:01;12.35;;;6.07;;
71856;SDS011;59712;46.980;28.882;2022-08-21T15:04:33;8.93;;;5.63;;
71856;SDS011;59712;46.980;28.882;2022-08-21T15:07:03;8.38;;;5.55;;
71856;SDS011;59712;46.980;28.882;2022-08-21T15:09:31;8.70;;;4.88;;
71856;SDS011;59712;46.980;28.882;2022-08-21T15:12:04;10.43;;;5.90;;
71856;SDS011;59712;46.980;28.882;2022-08-21T15:14:33;8.18;;;5.13;;
71856;SDS011;59712;46.980;28.882;2022-08-21T15:17:02;10.77;;;5.20;;
71856;SDS011;59712;46.980;28.882;2022-08-21T15:19:32;9.35;;;6.68;;
71856;SDS011;59712;46.980;28.882;2022-08-21T15:22:05;9.77;;;5.78;;
71856;SDS011;59712;46.980;28.882;2022-08-21T15:24:41;6.93;;;5.22;;
71856;SDS011;59712;46.980;28.882;2022-08-21T15:27:09;7.03;;;5.30;;
71856;SDS011;59712;46.980;28.882;2022-08-21T15:29:43;8.88;;;5.55;;
71856;SDS011;59712;46.980;28.882;2022-08-21T15:32:25;13.13;;;6.50;;
71856;SDS011;59712;46.980;28.882;2022-08-21T15:34:59;7.30;;;5.50;;
71856;SDS011;59712;46.980;28.882;2022-08-21T15:37:30;13.35;;;6.60;;
71856;SDS011;59712;46.980;28.882;2022-08-21T15:39:58;8.45;;;6.35;;
71856;SDS011;59712;46.980;28.882;2022-08-21T15:42:29;10.88;;;5.70;;
71856;SDS011;59712;46.980;28.882;2022-08-21T15:44:57;10.82;;;6.07;;
71856;SDS011;59712;46.980;28.882;2022-08-21T15:47:29;9.30;;;6.30;;
71856;SDS011;59712;46.980;28.882;2022-08-21T15:50:03;9.38;;;6.18;;
71856;SDS011;59712;46.980;28.882;2022-08-21T15:52:38;9.82;;;7.07;;
71856;SDS011;59712;46.980;28.882;2022-08-21T15:55:11;9.85;;;7.20;;
71856;SDS011;59712;46.980;28.882;2022-08-21T15:57:43;9.73;;;6.43;;
71856;SDS011;59712;46.980;28.882;2022-08-21T16:00:25;9.32;;;5.45;;
71856;SDS011;59712;46.980;28.882;2022-08-21T16:02:56;11.98;;;6.90;;
71856;SDS011;59712;46.980;28.882;2022-08-21T16:05:26;7.03;;;5.65;;
71856;SDS011;59712;46.980;28.882;2022-08-21T16:07:53;10.18;;;6.97;;
71856;SDS011;59712;46.980;28.882;2022-08-21T16:10:23;10.07;;;6.45;;
71856;SDS011;59712;46.980;28.882;2022-08-21T16:12:57;7.80;;;5.68;;
71856;SDS011;59712;46.980;28.882;2022-08-21T16:15:31;8.75;;;6.25;;
71856;SDS011;59712;46.980;28.882;2022-08-21T16:17:58;8.73;;;6.10;;
71856;SDS011;59712;46.980;28.882;2022-08-21T16:20:26;9.25;;;6.53;;
71856;SDS011;59712;46.980;28.882;2022-08-21T16:22:56;9.75;;;6.72;;
71856;SDS011;59712;46.980;28.882;2022-08-21T16:25:24;7.90;;;6.18;;
71856;SDS011;59712;46.980;28.882;2022-08-21T16:28:12;11.75;;;6.38;;
71856;SDS011;59712;46.980;28.882;2022-08-21T16:30:42;9.02;;;6.32;;
71856;SDS011;59712;46.980;28.882;2022-08-21T16:33:18;8.57;;;5.80;;
71856;SDS011;59712;46.980;28.882;2022-08-21T16:35:53;7.00;;;5.38;;
71856;SDS011;59712;46.980;28.882;2022-08-21T16:38:20;8.85;;;5.35;;
71856;SDS011;59712;46.980;28.882;2022-08-21T16:40:48;9.27;;;5.10;;
71856;SDS011;59712;46.980;28.882;2022-08-21T16:43:15;8.10;;;5.63;;